TAF and METAR

METAR for Agha Jari

OIAG 061100Z 34017KT CAVOK 45/08 Q0995
Report created 6. aug 13:00
wind 17 knots from NNW (340°) Clear sky Temperature 45° with dewpoint at 8° (Humidity 11.23%) Pressure 995 hPa
No TAF available for Agha Jari